KFWA/FWA METAR and TAF weather

Enter ICAO airport designator
Station Type Date Time Source
KFWA METAR 2022/11/27 09:19 UTC NOAA

KFWA 270919Z 06007KT 3SM -RA BR BKN006 BKN016 OVC023 05/04 A2957 RMK AO2 PRESFR P0002 T00500039 $


Station Type Date Time Source
KFWA Decoded METAR 2022/11/27 09:19 UTC NOAA

FORT WAYNE INTERNATIONAL, IN, United States (KFWA) 41-00N 85-12W 248M
Nov 27, 2022 - 04:19 AM EST / 2022.11.27 0919 UTC
Wind: from the ENE (060 degrees) at 8 MPH (7 KT):0
Visibility: 3 mile(s):0
Sky conditions: overcast
Weather: light rain; mist
Precipitation last hour: 0.02 inches
Temperature: 41.0 F (5.0 C)
Dew Point: 39.0 F (3.9 C)
Relative Humidity: 92%
Pressure (altimeter): 29.57 in. Hg (1001 hPa)
Pressure tendency: falling rapidly
ob: KFWA 270919Z 06007KT 3SM -RA BR BKN006 BKN016 OVC023 05/04 A2957 RMK AO2 PRESFR P0002 T00500039
cycle: 9

Station Type Date Time Source
KFWA TAF 2022/11/27 06:30 UTC NOAA

TAF KFWA 270528Z 2706/2806 11005KT P6SM BKN070
FM270900 09005KT 3SM -RA BR SCT005 OVC011
FM271100 08007KT 1SM RA BR OVC004
FM271900 30012KT 3SM -RA OVC006
FM272300 31011G19KT P6SM OVC010

Example: see airport list